TimeEDT,TemperatureF,Dew PointF,Humidity,Sea Level PressureIn,VisibilityMPH,Wind Direction,Wind SpeedMPH,Gust SpeedMPH,PrecipitationIn,Events,Conditions,WindDirDegrees,DateUTC
12:15 AM,44.6,42.6,93,30.26,10.0,East,3.5,-,N/A,,Clear,90,2013-10-15 04:15:00
12:35 AM,45.1,43.2,93,30.25,10.0,East,3.5,-,N/A,,Clear,80,2013-10-15 04:35:00
12:54 AM,44.6,43.7,97,30.25,10.0,ENE,3.5,-,N/A,,Clear,70,2013-10-15 04:54:00
1:15 AM,43.2,43.3,100,30.24,10.0,ENE,4.6,-,N/A,,Clear,70,2013-10-15 05:15:00
1:35 AM,43.7,43.7,100,30.24,10.0,East,3.5,-,N/A,,Clear,90,2013-10-15 05:35:00
1:54 AM,42.8,43.0,100,30.23,10.0,Calm,Calm,-,N/A,,Clear,0,2013-10-15 05:54:00
2:15 AM,42.8,43.0,100,30.22,10.0,ENE,3.5,-,N/A,,Clear,70,2013-10-15 06:15:00
2:35 AM,42.8,43.0,100,30.22,10.0,ENE,4.6,-,N/A,,Clear,70,2013-10-15 06:35:00
2:55 AM,42.8,43.0,100,30.21,10.0,East,4.6,-,N/A,,Clear,80,2013-10-15 06:55:00
3:15 AM,43.2,43.3,100,30.21,10.0,East,4.6,-,N/A,,Clear,80,2013-10-15 07:15:00
3:35 AM,43.2,43.3,100,30.20,10.0,East,4.6,-,N/A,,Clear,80,2013-10-15 07:35:00
3:55 AM,42.8,43.0,100,30.19,10.0,East,3.5,-,N/A,,Clear,80,2013-10-15 07:55:00
4:15 AM,45.0,45.1,100,30.19,10.0,Calm,Calm,-,N/A,,Mostly Cloudy,0,2013-10-15 08:15:00
4:35 AM,46.8,46.6,99,30.18,10.0,Calm,Calm,-,N/A,,Overcast,0,2013-10-15 08:35:00
4:55 AM,47.3,46.2,96,30.18,10.0,Calm,Calm,-,N/A,,Overcast,0,2013-10-15 08:55:00
5:15 AM,48.2,47.3,97,30.18,10.0,Calm,Calm,-,N/A,,Overcast,0,2013-10-15 09:15:00
5:35 AM,48.6,46.8,93,30.18,10.0,Calm,Calm,-,N/A,,Overcast,0,2013-10-15 09:35:00
5:54 AM,49.1,47.5,94,30.18,10.0,Calm,Calm,-,N/A,,Overcast,0,2013-10-15 09:54:00
6:15 AM,49.5,48.4,96,30.18,10.0,Calm,Calm,-,N/A,,Overcast,0,2013-10-15 10:15:00
6:35 AM,50.0,48.4,94,30.18,10.0,Calm,Calm,-,N/A,,Overcast,0,2013-10-15 10:35:00
6:55 AM,50.0,49.3,97,30.18,10.0,Calm,Calm,-,N/A,,Overcast,0,2013-10-15 10:55:00
7:15 AM,50.4,50.0,99,30.18,10.0,Calm,Calm,-,N/A,,Overcast,0,2013-10-15 11:15:00
7:35 AM,50.9,50.5,99,30.18,10.0,Calm,Calm,-,N/A,,Overcast,0,2013-10-15 11:35:00
7:55 AM,51.1,51.1,100,30.18,10.0,Calm,Calm,-,N/A,,Overcast,0,2013-10-15 11:55:00
8:15 AM,51.4,51.3,99,30.18,10.0,East,3.5,-,N/A,,Overcast,90,2013-10-15 12:15:00
8:35 AM,52.0,51.6,99,30.18,10.0,ESE,4.6,-,N/A,,Overcast,110,2013-10-15 12:35:00
8:54 AM,51.8,52.0,100,30.17,4.0,ESE,3.5,-,N/A,,Overcast,120,2013-10-15 12:54:00
9:15 AM,-9999,-9999,N/A,30.16,3.0,Calm,Calm,-,N/A,,Overcast,0,2013-10-15 13:15:00
9:35 AM,52.7,52.9,100,30.17,1.8,Calm,Calm,-,N/A,,Overcast,0,2013-10-15 13:35:00
9:55 AM,52.7,52.9,100,30.17,1.5,SE,3.5,-,N/A,,Overcast,140,2013-10-15 13:55:00
10:15 AM,52.9,53.1,100,30.17,1.5,Calm,Calm,-,N/A,,Overcast,0,2013-10-15 14:15:00
10:34 AM,54.0,54.3,100,30.16,1.5,Calm,Calm,-,N/A,,Overcast,0,2013-10-15 14:34:00
10:55 AM,54.7,54.9,100,30.16,1.8,Calm,Calm,-,N/A,,Overcast,0,2013-10-15 14:55:00
11:15 AM,55.6,55.8,100,30.14,3.0,ESE,4.6,-,N/A,,Overcast,110,2013-10-15 15:15:00
11:35 AM,56.5,56.7,100,30.14,7.0,ESE,3.5,-,N/A,,Overcast,120,2013-10-15 15:35:00
11:54 AM,56.7,56.8,100,30.13,7.0,ESE,4.6,-,N/A,,Overcast,120,2013-10-15 15:54:00
12:15 PM,57.2,57.4,100,30.13,7.0,Calm,Calm,-,N/A,,Overcast,0,2013-10-15 16:15:00
12:35 PM,57.2,57.2,100,30.12,7.0,SE,3.5,-,N/A,,Overcast,140,2013-10-15 16:35:00
12:54 PM,57.9,57.7,99,30.11,7.0,SE,4.6,-,N/A,,Overcast,140,2013-10-15 16:54:00
1:15 PM,58.1,57.7,99,30.10,7.0,SE,3.5,-,N/A,,Overcast,130,2013-10-15 17:15:00
1:35 PM,59.0,57.4,94,30.09,7.0,SSE,3.5,-,N/A,,Overcast,150,2013-10-15 17:35:00
1:54 PM,58.6,57.9,97,30.09,7.0,SE,3.5,-,N/A,,Overcast,140,2013-10-15 17:54:00
2:15 PM,58.5,58.1,99,30.08,7.0,SE,4.6,-,N/A,,Overcast,130,2013-10-15 18:15:00
2:35 PM,59.2,58.5,97,30.07,7.0,Calm,Calm,-,N/A,,Overcast,0,2013-10-15 18:35:00
2:54 PM,59.9,58.3,94,30.07,7.0,Calm,Calm,-,N/A,,Overcast,0,2013-10-15 18:54:00
3:15 PM,60.6,58.3,92,30.06,10.0,Calm,Calm,-,N/A,,Overcast,0,2013-10-15 19:15:00
3:35 PM,61.0,58.3,91,30.06,10.0,Calm,Calm,-,N/A,,Overcast,0,2013-10-15 19:35:00
3:55 PM,61.7,58.3,89,30.06,10.0,Calm,Calm,-,N/A,,Overcast,0,2013-10-15 19:55:00
4:15 PM,62.4,58.5,87,30.05,10.0,SSE,3.5,-,N/A,,Mostly Cloudy,150,2013-10-15 20:15:00
4:35 PM,62.6,57.6,84,30.03,7.0,SE,3.5,-,N/A,,Scattered Clouds,130,2013-10-15 20:35:00
4:55 PM,62.8,57.9,84,30.04,7.0,SE,3.5,-,N/A,,Scattered Clouds,130,2013-10-15 20:55:00
5:15 PM,62.6,58.1,85,30.03,10.0,Calm,Calm,-,N/A,,Scattered Clouds,0,2013-10-15 21:15:00
5:35 PM,62.6,58.1,85,30.02,10.0,ESE,3.5,-,N/A,,Clear,120,2013-10-15 21:35:00
5:55 PM,62.1,58.5,88,30.02,10.0,SE,4.6,-,N/A,,Scattered Clouds,130,2013-10-15 21:55:00
6:15 PM,61.9,58.8,90,30.01,10.0,Calm,Calm,-,N/A,,Scattered Clouds,0,2013-10-15 22:15:00
6:35 PM,61.2,60.1,96,30.00,10.0,ESE,5.8,-,N/A,,Clear,110,2013-10-15 22:35:00
6:55 PM,61.0,60.8,99,30.00,10.0,ESE,3.5,-,N/A,,Clear,120,2013-10-15 22:55:00
7:15 PM,61.0,60.8,99,30.00,10.0,SE,4.6,-,N/A,,Clear,130,2013-10-15 23:15:00
7:35 PM,60.8,61.0,100,30.00,10.0,SE,4.6,-,N/A,,Clear,130,2013-10-15 23:35:00
7:55 PM,60.8,61.0,100,29.99,10.0,SE,4.6,-,N/A,,Clear,140,2013-10-15 23:55:00
8:15 PM,61.2,61.2,100,29.98,10.0,SE,4.6,-,N/A,,Clear,140,2013-10-16 00:15:00
8:35 PM,61.3,61.2,99,29.98,10.0,SE,3.5,-,N/A,,Clear,130,2013-10-16 00:35:00
8:55 PM,61.7,61.2,98,29.98,10.0,Calm,Calm,-,N/A,,Clear,0,2013-10-16 00:55:00
9:15 PM,61.3,61.2,99,29.98,10.0,Calm,Calm,-,N/A,,Clear,0,2013-10-16 01:15:00
9:35 PM,61.7,61.0,97,29.98,10.0,Calm,Calm,-,N/A,,Clear,0,2013-10-16 01:35:00
9:55 PM,61.7,60.8,97,29.98,10.0,Calm,Calm,-,N/A,,Clear,0,2013-10-16 01:55:00
10:15 PM,61.5,60.3,96,29.97,10.0,Calm,Calm,-,N/A,,Clear,0,2013-10-16 02:15:00
10:35 PM,61.7,59.5,93,29.97,10.0,Calm,Calm,-,N/A,,Clear,0,2013-10-16 02:35:00
10:54 PM,62.1,59.0,90,29.97,10.0,Calm,Calm,-,N/A,,Clear,0,2013-10-16 02:54:00
11:15 PM,62.1,58.1,87,29.97,10.0,Calm,Calm,-,N/A,,Clear,0,2013-10-16 03:15:00
11:35 PM,62.1,57.2,84,29.97,10.0,Calm,Calm,-,N/A,Rain,Rain,0,2013-10-16 03:35:00
11:55 PM,61.7,57.2,85,29.97,10.0,Calm,Calm,-,N/A,Rain,Light Rain,0,2013-10-16 03:55:00